createdAt,value
2018-11-03T00:00:41.498Z,5.16
2018-11-03T00:01:41.472Z,5.19
2018-11-03T00:02:41.457Z,5.17
2018-11-03T00:03:41.427Z,5.10
2018-11-03T00:04:41.405Z,5.09
2018-11-03T00:05:41.386Z,5.13
2018-11-03T00:06:41.363Z,4.99
2018-11-03T00:07:41.335Z,5.02
2018-11-03T00:08:41.319Z,4.88
2018-11-03T00:09:41.293Z,4.96
2018-11-03T00:10:41.270Z,4.88
2018-11-03T00:11:41.242Z,4.94
2018-11-03T00:12:41.220Z,4.92
2018-11-03T00:13:41.198Z,4.94
2018-11-03T00:14:41.195Z,4.94
2018-11-03T00:15:41.154Z,4.96
2018-11-03T00:16:41.128Z,5.07
2018-11-03T00:17:41.102Z,5.14
2018-11-03T00:18:41.070Z,4.96
2018-11-03T00:19:41.054Z,5.05
2018-11-03T00:20:41.029Z,4.96
2018-11-03T00:21:41.007Z,4.99
2018-11-03T00:22:40.994Z,4.92
2018-11-03T00:23:40.962Z,4.88
2018-11-03T00:24:40.952Z,4.95
2018-11-03T00:25:40.914Z,4.96
2018-11-03T00:26:40.891Z,4.88
2018-11-03T00:27:40.866Z,4.84
2018-11-03T00:28:40.844Z,4.75
2018-11-03T00:29:40.830Z,4.75
2018-11-03T00:30:40.798Z,4.73
2018-11-03T00:31:40.785Z,4.70
2018-11-03T00:32:40.753Z,4.73
2018-11-03T00:33:40.727Z,4.67
2018-11-03T00:34:40.715Z,4.64
2018-11-03T00:35:40.676Z,4.67
2018-11-03T00:36:40.657Z,4.73
2018-11-03T00:37:40.644Z,4.65
2018-11-03T00:38:40.635Z,4.69
2018-11-03T00:39:40.584Z,4.73
2018-11-03T00:40:40.680Z,4.70
2018-11-03T00:41:40.543Z,4.77
2018-11-03T00:42:40.547Z,4.75
2018-11-03T00:43:40.495Z,4.73
2018-11-03T00:44:40.469Z,4.80
2018-11-03T00:45:40.444Z,4.73
2018-11-03T00:46:40.423Z,4.92
2018-11-03T00:47:40.395Z,4.89
2018-11-03T00:48:40.376Z,4.95
2018-11-03T00:49:40.353Z,5.01
2018-11-03T00:50:40.331Z,5.10
2018-11-03T00:51:40.311Z,5.07
2018-11-03T00:52:40.274Z,5.16
2018-11-03T00:53:40.257Z,5.09
2018-11-03T00:54:40.239Z,5.05
2018-11-03T00:55:40.250Z,5.10
2018-11-03T00:56:40.186Z,5.16
2018-11-03T00:57:40.157Z,5.09
2018-11-03T00:58:40.144Z,5.13
2018-11-03T00:59:40.109Z,5.19
2018-11-03T01:00:40.090Z,5.14
2018-11-03T01:01:40.071Z,5.25
2018-11-03T01:02:40.042Z,5.32
2018-11-03T01:03:40.021Z,5.28
2018-11-03T01:04:39.997Z,5.32
2018-11-03T01:05:39.977Z,5.41
2018-11-03T01:06:39.945Z,5.35
2018-11-03T01:07:39.933Z,5.45
2018-11-03T01:08:39.910Z,5.40
2018-11-03T01:09:39.875Z,5.40
2018-11-03T01:10:39.855Z,5.45
2018-11-03T01:11:39.842Z,5.41
2018-11-03T01:12:39.814Z,5.43
2018-11-03T01:13:39.785Z,5.38
2018-11-03T01:14:39.763Z,5.52
2018-11-03T01:15:39.744Z,5.48
2018-11-03T01:16:39.719Z,5.52
2018-11-03T01:17:39.701Z,5.38
2018-11-03T01:18:39.669Z,5.48
2018-11-03T01:19:39.647Z,5.49
2018-11-03T01:20:39.618Z,5.52
2018-11-03T01:21:39.600Z,5.49
2018-11-03T01:22:39.583Z,5.52
2018-11-03T01:23:39.685Z,5.46
2018-11-03T01:24:39.529Z,5.66
2018-11-03T01:25:39.506Z,5.64
2018-11-03T01:26:39.480Z,5.52
2018-11-03T01:27:39.473Z,5.60
2018-11-03T01:28:39.438Z,5.57
2018-11-03T01:29:40.100Z,5.63
2018-11-03T01:30:39.402Z,5.66
2018-11-03T01:31:39.367Z,5.63
2018-11-03T01:32:39.433Z,5.56
2018-11-03T01:33:39.338Z,5.60
2018-11-03T01:34:39.300Z,5.67
2018-11-03T01:35:39.272Z,5.63
2018-11-03T01:36:39.251Z,5.63
2018-11-03T01:37:39.251Z,5.60
2018-11-03T01:38:39.204Z,5.64
2018-11-03T01:39:39.181Z,5.64
2018-11-03T01:40:39.162Z,5.66
2018-11-03T01:41:39.136Z,5.70
2018-11-03T01:42:39.123Z,5.74
2018-11-03T01:43:39.105Z,5.71
2018-11-03T01:44:39.069Z,5.81
2018-11-03T01:45:39.044Z,5.75
2018-11-03T01:46:39.033Z,5.77
2018-11-03T01:47:39.001Z,5.77
2018-11-03T01:48:38.973Z,5.81
2018-11-03T01:49:38.980Z,5.81
2018-11-03T01:50:38.929Z,5.81
2018-11-03T01:51:38.900Z,5.75
2018-11-03T01:52:38.884Z,5.75
2018-11-03T01:53:38.868Z,5.88
2018-11-03T01:54:38.831Z,5.91
2018-11-03T01:55:38.819Z,5.86
2018-11-03T01:56:38.786Z,5.82
2018-11-03T01:57:38.770Z,5.93
2018-11-03T01:58:38.741Z,5.86
2018-11-03T01:59:38.719Z,5.85
2018-11-03T02:00:38.700Z,5.89
2018-11-03T02:01:38.674Z,5.89
2018-11-03T02:02:38.654Z,5.77
2018-11-03T02:03:38.630Z,5.86
2018-11-03T02:04:38.611Z,5.86
2018-11-03T02:05:38.579Z,5.92
2018-11-03T02:06:38.566Z,5.89
2018-11-03T02:07:38.527Z,5.83
2018-11-03T02:08:38.516Z,5.88
2018-11-03T02:09:38.509Z,5.95
2018-11-03T02:10:38.470Z,5.95
2018-11-03T02:11:38.445Z,5.98
2018-11-03T02:12:38.427Z,5.92
2018-11-03T02:13:38.400Z,6.00
2018-11-03T02:14:38.400Z,6.01
2018-11-03T02:15:38.350Z,5.95
2018-11-03T02:16:38.331Z,5.95
2018-11-03T02:17:38.334Z,5.98
2018-11-03T02:18:38.277Z,6.01
2018-11-03T02:19:38.274Z,5.93
2018-11-03T02:20:38.260Z,5.95
2018-11-03T02:21:38.227Z,5.95
2018-11-03T02:22:38.196Z,5.95
2018-11-03T02:23:38.182Z,6.03
2018-11-03T02:24:38.157Z,6.04
2018-11-03T02:25:38.125Z,6.09
2018-11-03T02:26:38.103Z,6.04
2018-11-03T02:27:38.081Z,6.04
2018-11-03T02:28:38.054Z,6.10
2018-11-03T02:29:38.030Z,6.13
2018-11-03T02:30:38.012Z,6.03
2018-11-03T02:31:37.986Z,6.06
2018-11-03T02:32:37.974Z,6.09
2018-11-03T02:33:37.940Z,6.10
2018-11-03T02:34:37.928Z,6.07
2018-11-03T02:35:37.893Z,6.10
2018-11-03T02:36:37.876Z,6.13
2018-11-03T02:37:37.852Z,6.14
2018-11-03T02:38:37.828Z,6.19
2018-11-03T02:39:37.806Z,6.21
2018-11-03T02:40:37.783Z,6.16
2018-11-03T02:41:37.764Z,6.14
2018-11-03T02:42:37.728Z,6.18
2018-11-03T02:43:37.712Z,6.14
2018-11-03T02:44:37.688Z,6.18
2018-11-03T02:45:37.677Z,6.19
2018-11-03T02:46:37.643Z,6.16
2018-11-03T02:47:37.613Z,6.18
2018-11-03T02:48:37.603Z,6.18
2018-11-03T02:49:37.588Z,6.18
2018-11-03T02:50:37.550Z,6.09
2018-11-03T02:51:37.533Z,6.16
2018-11-03T02:52:37.508Z,6.25
2018-11-03T02:53:37.479Z,6.22
2018-11-03T02:54:37.458Z,6.26
2018-11-03T02:55:37.437Z,6.18
2018-11-03T02:56:37.412Z,6.18
2018-11-03T02:57:37.390Z,6.21
2018-11-03T02:58:37.379Z,6.18
2018-11-03T02:59:37.344Z,6.16
2018-11-03T03:00:37.354Z,6.16
2018-11-03T03:01:37.329Z,6.19
2018-11-03T03:02:37.274Z,6.16
2018-11-03T03:03:37.268Z,6.13
2018-11-03T03:04:37.256Z,6.16
2018-11-03T03:05:37.212Z,6.19
2018-11-03T03:06:37.180Z,6.16
2018-11-03T03:07:37.161Z,6.18
2018-11-03T03:08:37.142Z,6.18
2018-11-03T03:09:37.116Z,6.09
2018-11-03T03:10:37.103Z,6.04
2018-11-03T03:11:37.255Z,6.03
2018-11-03T03:12:37.055Z,5.96
2018-11-03T03:13:37.032Z,6.04
2018-11-03T03:14:37.022Z,5.89
2018-11-03T03:15:36.980Z,5.88
2018-11-03T03:16:36.958Z,5.86
2018-11-03T03:17:36.940Z,5.86
2018-11-03T03:18:36.913Z,5.78
2018-11-03T03:19:36.888Z,5.83
2018-11-03T03:20:36.865Z,5.74
2018-11-03T03:21:36.843Z,5.78
2018-11-03T03:22:36.817Z,5.71
2018-11-03T03:23:36.797Z,5.60
2018-11-03T03:24:36.786Z,5.53
2018-11-03T03:25:36.776Z,5.48
2018-11-03T03:26:36.727Z,5.40
2018-11-03T03:27:36.708Z,5.27
2018-11-03T03:28:36.713Z,5.38
2018-11-03T03:29:36.685Z,5.28
2018-11-03T03:30:36.636Z,5.20
2018-11-03T03:31:36.625Z,5.30
2018-11-03T03:32:36.616Z,5.20
2018-11-03T03:33:36.577Z,5.19
2018-11-03T03:34:36.544Z,5.13
2018-11-03T03:35:36.526Z,5.14
2018-11-03T03:36:36.494Z,5.05
2018-11-03T03:37:36.484Z,5.10
2018-11-03T03:38:36.532Z,5.13
2018-11-03T03:39:36.495Z,5.09
2018-11-03T03:40:36.422Z,5.07
2018-11-03T03:41:36.390Z,5.07
2018-11-03T03:42:36.469Z,4.99
2018-11-03T03:43:36.340Z,5.07
2018-11-03T03:44:36.332Z,4.96
2018-11-03T03:45:36.296Z,4.84
2018-11-03T03:46:36.268Z,4.73
2018-11-03T03:47:36.246Z,4.77
2018-11-03T03:48:36.224Z,4.76
2018-11-03T03:49:36.201Z,4.69
2018-11-03T03:50:36.168Z,4.61
2018-11-03T03:51:36.153Z,4.65
2018-11-03T03:52:36.121Z,4.52
2018-11-03T03:53:36.118Z,4.46
2018-11-03T03:54:36.073Z,4.59
2018-11-03T03:55:36.055Z,4.54
2018-11-03T03:56:36.028Z,4.54
2018-11-03T03:57:36.034Z,4.43
2018-11-03T03:58:35.989Z,4.42
2018-11-03T03:59:35.960Z,4.39
2018-11-03T04:00:35.947Z,4.36
2018-11-03T04:01:35.915Z,4.40
2018-11-03T04:02:35.890Z,4.34
2018-11-03T04:03:35.861Z,4.34
2018-11-03T04:04:35.832Z,4.34
2018-11-03T04:05:35.820Z,4.33
2018-11-03T04:06:35.797Z,4.32
2018-11-03T04:07:35.790Z,4.33
2018-11-03T04:08:35.768Z,4.22
2018-11-03T04:09:35.728Z,4.26
2018-11-03T04:10:35.698Z,4.22
2018-11-03T04:11:35.679Z,4.24
2018-11-03T04:12:35.653Z,4.25
2018-11-03T04:13:35.631Z,4.19
2018-11-03T04:14:35.608Z,4.25
2018-11-03T04:15:35.583Z,4.16
2018-11-03T04:16:35.569Z,4.21
2018-11-03T04:17:35.528Z,4.18
2018-11-03T04:18:35.520Z,4.10
2018-11-03T04:19:35.507Z,4.06
2018-11-03T04:20:35.463Z,4.03
2018-11-03T04:21:35.439Z,3.92
2018-11-03T04:22:35.439Z,3.90
2018-11-03T04:23:35.395Z,3.94
2018-11-03T04:24:35.369Z,3.96
2018-11-03T04:25:35.338Z,3.92
2018-11-03T04:26:35.322Z,4.00
2018-11-03T04:27:35.312Z,3.94
2018-11-03T04:28:35.271Z,3.94
2018-11-03T04:29:35.249Z,3.92
2018-11-03T04:30:35.226Z,3.96
2018-11-03T04:31:35.208Z,3.89
2018-11-03T04:32:35.179Z,3.94
2018-11-03T04:33:35.150Z,3.96
2018-11-03T04:34:35.159Z,3.96
2018-11-03T04:35:35.112Z,3.89
2018-11-03T04:36:35.092Z,3.96
2018-11-03T04:37:35.076Z,3.96
2018-11-03T04:38:35.035Z,3.86
2018-11-03T04:39:35.039Z,3.80
2018-11-03T04:40:34.990Z,3.78
2018-11-03T04:41:34.954Z,3.79
2018-11-03T04:42:34.958Z,3.72
2018-11-03T04:43:34.906Z,3.82
2018-11-03T04:44:34.894Z,3.76
2018-11-03T04:45:34.937Z,3.83
2018-11-03T04:46:34.837Z,3.72
2018-11-03T04:47:34.817Z,3.82
2018-11-03T04:48:34.798Z,3.68
2018-11-03T04:49:34.775Z,3.75
2018-11-03T04:50:34.747Z,3.76
2018-11-03T04:51:34.732Z,3.76
2018-11-03T04:52:34.716Z,3.71
2018-11-03T04:53:34.696Z,3.71
2018-11-03T04:54:34.657Z,3.65
2018-11-03T04:55:34.680Z,3.76
2018-11-03T04:56:34.620Z,3.76
2018-11-03T04:57:34.605Z,3.72
2018-11-03T04:58:34.563Z,3.68
2018-11-03T04:59:34.528Z,3.78
2018-11-03T05:00:34.510Z,3.78
2018-11-03T05:01:34.477Z,3.80
2018-11-03T05:02:34.460Z,3.67
2018-11-03T05:03:34.433Z,3.70
2018-11-03T05:04:34.404Z,3.65
2018-11-03T05:05:34.410Z,3.65
2018-11-03T05:06:34.359Z,3.57
2018-11-03T05:07:34.346Z,3.62
2018-11-03T05:08:34.320Z,3.53
2018-11-03T05:09:34.289Z,3.44
2018-11-03T05:10:34.348Z,3.46
2018-11-03T05:11:34.250Z,3.39
2018-11-03T05:12:34.234Z,3.39
2018-11-03T05:13:34.224Z,3.24
2018-11-03T05:14:34.166Z,3.24
2018-11-03T05:15:34.145Z,3.34
2018-11-03T05:16:34.122Z,3.31
2018-11-03T05:17:34.111Z,3.34
2018-11-03T05:18:34.089Z,3.31
2018-11-03T05:19:34.061Z,3.34
2018-11-03T05:20:34.027Z,3.39
2018-11-03T05:21:34.001Z,3.30
2018-11-03T05:22:33.972Z,3.31
2018-11-03T05:23:33.956Z,3.30
2018-11-03T05:24:33.940Z,3.30
2018-11-03T05:25:33.937Z,3.30
2018-11-03T05:26:33.876Z,3.21
2018-11-03T05:27:33.854Z,3.10
2018-11-03T05:28:33.848Z,3.16
2018-11-03T05:29:33.811Z,3.09
2018-11-03T05:30:33.799Z,3.06
2018-11-03T05:31:33.794Z,3.13
2018-11-03T05:32:33.738Z,3.13
2018-11-03T05:33:33.731Z,3.06
2018-11-03T05:34:33.684Z,2.94
2018-11-03T05:35:33.683Z,3.03
2018-11-03T05:36:33.648Z,2.97
2018-11-03T05:37:33.618Z,2.84
2018-11-03T05:38:33.612Z,2.89
2018-11-03T05:39:33.574Z,2.94
2018-11-03T05:40:33.542Z,3.02
2018-11-03T05:41:33.532Z,2.97
2018-11-03T05:42:33.522Z,3.06
2018-11-03T05:43:33.477Z,2.97
2018-11-03T05:44:33.463Z,2.92
2018-11-03T05:45:33.443Z,3.00
2018-11-03T05:46:33.595Z,2.91
2018-11-03T05:47:33.372Z,2.87
2018-11-03T05:48:33.343Z,2.84
2018-11-03T05:49:33.330Z,2.84
2018-11-03T05:50:34.186Z,2.82
2018-11-03T05:51:35.290Z,2.77
2018-11-03T05:52:41.056Z,2.79
2018-11-03T05:53:38.772Z,2.74
2018-11-03T05:54:33.199Z,2.94
2018-11-03T05:55:33.180Z,3.05
2018-11-03T05:56:33.157Z,2.98
2018-11-03T05:57:33.138Z,3.02
2018-11-03T05:58:33.112Z,3.03
2018-11-03T05:59:33.097Z,3.12
2018-11-03T06:00:33.058Z,3.07
2018-11-03T06:01:33.061Z,3.09
2018-11-03T06:02:33.012Z,2.95
2018-11-03T06:03:33.006Z,2.95
2018-11-03T06:04:32.961Z,2.89
2018-11-03T06:05:32.942Z,2.88
2018-11-03T06:06:32.922Z,2.88
2018-11-03T06:07:32.888Z,2.81
2018-11-03T06:08:32.933Z,2.84
2018-11-03T06:09:32.863Z,2.70
2018-11-03T06:10:32.814Z,2.70
2018-11-03T06:11:32.810Z,2.64
2018-11-03T06:12:32.766Z,2.61
2018-11-03T06:13:32.744Z,2.61
2018-11-03T06:14:32.718Z,2.58
2018-11-03T06:15:32.763Z,2.49
2018-11-03T06:16:32.695Z,2.48
2018-11-03T06:17:32.639Z,2.51
2018-11-03T06:18:32.623Z,2.45
2018-11-03T06:19:32.607Z,2.33
2018-11-03T06:20:32.575Z,2.46
2018-11-03T06:21:32.564Z,2.48
2018-11-03T06:22:32.596Z,2.52
2018-11-03T06:23:32.555Z,2.53
2018-11-03T06:24:32.489Z,2.49
2018-11-03T06:25:32.473Z,2.40
2018-11-03T06:26:32.447Z,2.38
2018-11-03T06:27:32.406Z,2.40
2018-11-03T06:28:32.377Z,2.38
2018-11-03T06:29:32.367Z,2.26
2018-11-03T06:30:32.319Z,2.22
2018-11-03T06:31:32.303Z,2.15
2018-11-03T06:32:32.294Z,2.20
2018-11-03T06:33:32.258Z,2.20
2018-11-03T06:34:32.234Z,2.19
2018-11-03T06:35:32.209Z,2.28
2018-11-03T06:36:32.186Z,2.22
2018-11-03T06:37:32.160Z,2.26
2018-11-03T06:38:32.132Z,2.22
2018-11-03T06:39:32.112Z,2.10
2018-11-03T06:40:32.087Z,2.06
2018-11-03T06:41:32.068Z,2.17
2018-11-03T06:42:32.045Z,2.16
2018-11-03T06:43:32.041Z,2.22
2018-11-03T06:44:31.985Z,2.31
2018-11-03T06:45:31.966Z,2.23
2018-11-03T06:46:31.951Z,2.35
2018-11-03T06:47:31.987Z,2.23
2018-11-03T06:48:31.883Z,2.23
2018-11-03T06:49:31.864Z,2.20
2018-11-03T06:50:31.847Z,2.31
2018-11-03T06:51:31.815Z,2.30
2018-11-03T06:52:31.789Z,2.17
2018-11-03T06:53:31.767Z,2.16
2018-11-03T06:54:31.738Z,2.22
2018-11-03T06:55:31.721Z,2.40
2018-11-03T06:56:31.694Z,2.51
2018-11-03T06:57:31.680Z,2.66
2018-11-03T06:58:31.670Z,2.63
2018-11-03T06:59:31.629Z,2.73
2018-11-03T07:00:31.597Z,2.70
2018-11-03T07:01:31.572Z,2.67
2018-11-03T07:02:31.548Z,2.67
2018-11-03T07:03:31.531Z,2.58
2018-11-03T07:04:31.495Z,2.58
2018-11-03T07:05:31.496Z,2.63
2018-11-03T07:06:31.444Z,2.59
2018-11-03T07:07:31.418Z,2.56
2018-11-03T07:08:31.399Z,2.66
2018-11-03T07:09:31.367Z,2.74
2018-11-03T07:10:31.344Z,2.84
2018-11-03T07:11:31.342Z,2.84
2018-11-03T07:12:31.540Z,2.74
2018-11-03T07:13:31.293Z,2.76
2018-11-03T07:14:31.252Z,2.84
2018-11-03T07:15:31.226Z,2.84
2018-11-03T07:16:31.203Z,2.88
2018-11-03T07:17:31.174Z,2.81
2018-11-03T07:18:31.149Z,2.91
2018-11-03T07:19:31.129Z,2.82
2018-11-03T07:20:31.104Z,2.87
2018-11-03T07:21:31.091Z,2.94
2018-11-03T07:22:31.056Z,2.94
2018-11-03T07:23:31.034Z,3.12
2018-11-03T07:24:31.026Z,3.20
2018-11-03T07:25:30.982Z,3.28
2018-11-03T07:26:30.959Z,3.24
2018-11-03T07:27:30.928Z,3.27
2018-11-03T07:28:30.905Z,3.34
2018-11-03T07:29:30.918Z,3.33
2018-11-03T07:30:30.891Z,3.31
2018-11-03T07:31:30.838Z,3.39
2018-11-03T07:32:30.835Z,3.46
2018-11-03T07:33:30.802Z,3.46
2018-11-03T07:34:30.767Z,3.44
2018-11-03T07:35:30.741Z,3.43
2018-11-03T07:36:30.736Z,3.57
2018-11-03T07:37:30.693Z,3.82
2018-11-03T07:38:30.671Z,4.01
2018-11-03T07:39:30.648Z,4.39
2018-11-03T07:40:30.618Z,4.52
2018-11-03T07:41:30.674Z,4.86
2018-11-03T07:42:30.630Z,5.25
2018-11-03T07:43:30.548Z,5.68
2018-11-03T07:44:30.522Z,6.10
2018-11-03T07:45:30.500Z,6.59
2018-11-03T07:46:30.484Z,7.07
2018-11-03T07:47:30.449Z,7.53
2018-11-03T07:48:30.486Z,7.90
2018-11-03T07:49:30.503Z,8.32
2018-11-03T07:50:30.386Z,8.79
2018-11-03T07:51:30.360Z,9.12
2018-11-03T07:52:30.325Z,9.42
2018-11-03T07:53:30.308Z,9.61
2018-11-03T07:54:30.311Z,9.66
2018-11-03T07:55:30.257Z,9.76
2018-11-03T07:56:30.239Z,9.70
2018-11-03T07:57:30.255Z,9.58
2018-11-03T07:58:30.197Z,9.52
2018-11-03T07:59:30.175Z,9.73
2018-11-03T08:00:30.184Z,9.88
2018-11-03T08:01:30.120Z,10.07
2018-11-03T08:02:30.104Z,10.34
2018-11-03T08:03:30.081Z,10.37
2018-11-03T08:04:30.053Z,10.37
2018-11-03T08:05:30.034Z,10.15
2018-11-03T08:06:30.023Z,10.01
2018-11-03T08:07:29.982Z,9.91
2018-11-03T08:08:29.967Z,10.01
2018-11-03T08:09:29.941Z,10.28
2018-11-03T08:10:29.929Z,10.55
2018-11-03T08:11:29.909Z,10.78
2018-11-03T08:12:29.877Z,10.84
2018-11-03T08:13:29.858Z,11.13
2018-11-03T08:14:29.834Z,11.32
2018-11-03T08:15:29.843Z,11.72
2018-11-03T08:16:29.786Z,11.61
2018-11-03T08:17:29.768Z,11.56
2018-11-03T08:18:29.744Z,11.61
2018-11-03T08:19:29.730Z,11.10
2018-11-03T08:20:29.706Z,10.88
2018-11-03T08:21:29.723Z,10.66
2018-11-03T08:22:29.680Z,10.33
2018-11-03T08:23:29.643Z,10.59
2018-11-03T08:24:29.621Z,10.66
2018-11-03T08:25:29.598Z,10.74
2018-11-03T08:26:29.572Z,10.96
2018-11-03T08:27:29.554Z,11.29
2018-11-03T08:28:29.529Z,11.47
2018-11-03T08:29:29.518Z,11.20
2018-11-03T08:30:29.489Z,10.89
2018-11-03T08:31:29.555Z,10.62
2018-11-03T08:32:29.451Z,10.59
2018-11-03T08:33:29.431Z,10.59
2018-11-03T08:34:29.401Z,10.55
2018-11-03T08:35:29.389Z,10.55
2018-11-03T08:36:29.363Z,10.60
2018-11-03T08:37:29.341Z,10.59
2018-11-03T08:38:29.315Z,10.98
2018-11-03T08:39:29.332Z,11.20
2018-11-03T08:40:29.274Z,11.24
2018-11-03T08:41:29.258Z,11.28
2018-11-03T08:42:29.238Z,10.98
2018-11-03T08:43:29.218Z,10.78
2018-11-03T08:44:29.194Z,10.56
2018-11-03T08:45:29.188Z,10.68
2018-11-03T08:46:29.163Z,10.70
2018-11-03T08:47:29.141Z,10.60
2018-11-03T08:48:29.123Z,10.56
2018-11-03T08:49:29.144Z,10.47
2018-11-03T08:50:29.067Z,10.33
2018-11-03T08:51:29.045Z,10.32
2018-11-03T08:52:29.031Z,10.09
2018-11-03T08:53:29.009Z,9.78
2018-11-03T08:54:28.990Z,9.45
2018-11-03T08:55:28.961Z,9.43
2018-11-03T08:56:28.942Z,9.52
2018-11-03T08:57:28.928Z,9.38
2018-11-03T08:58:28.907Z,9.27
2018-11-03T08:59:28.917Z,9.16
2018-11-03T09:00:28.894Z,9.10
2018-11-03T09:01:28.836Z,8.97
2018-11-03T09:02:28.818Z,9.06
2018-11-03T09:03:28.807Z,9.10
2018-11-03T09:04:28.777Z,8.99
2018-11-03T09:05:28.759Z,8.97
2018-11-03T09:06:28.768Z,8.96
2018-11-03T09:07:28.712Z,8.99
2018-11-03T09:08:28.694Z,8.93
2018-11-03T09:09:28.672Z,8.90
2018-11-03T09:10:28.653Z,8.99
2018-11-03T09:11:28.635Z,9.01
2018-11-03T09:12:28.606Z,9.01
2018-11-03T09:13:28.586Z,9.09
2018-11-03T09:14:28.579Z,9.13
2018-11-03T09:15:28.544Z,9.21
2018-11-03T09:16:28.531Z,9.13
2018-11-03T09:17:28.503Z,9.23
2018-11-03T09:18:28.491Z,9.34
2018-11-03T09:19:28.460Z,9.48
2018-11-03T09:20:28.445Z,9.49
2018-11-03T09:21:28.461Z,9.45
2018-11-03T09:22:28.409Z,9.58
2018-11-03T09:23:28.384Z,9.66
2018-11-03T09:24:28.360Z,9.79
2018-11-03T09:25:28.329Z,9.88
2018-11-03T09:26:28.319Z,10.15
2018-11-03T09:27:28.301Z,10.33
2018-11-03T09:28:28.271Z,10.47
2018-11-03T09:29:28.246Z,10.44
2018-11-03T09:30:28.225Z,10.47
2018-11-03T09:31:28.212Z,10.62
2018-11-03T09:32:28.190Z,10.68
2018-11-03T09:33:28.168Z,10.77
2018-11-03T09:34:28.193Z,10.94
2018-11-03T09:35:28.132Z,11.43
2018-11-03T09:36:28.110Z,11.74
2018-11-03T09:37:28.115Z,11.90
2018-11-03T09:38:28.078Z,12.13
2018-11-03T09:39:28.046Z,12.63
2018-11-03T09:40:28.022Z,13.17
2018-11-03T09:41:28.006Z,13.65
2018-11-03T09:42:27.990Z,13.76
2018-11-03T09:43:28.005Z,13.71
2018-11-03T09:44:27.955Z,13.94
2018-11-03T09:45:27.925Z,14.02
2018-11-03T09:46:27.912Z,14.14
2018-11-03T09:47:27.906Z,14.20
2018-11-03T09:48:27.877Z,14.16
2018-11-03T09:49:27.853Z,13.98
2018-11-03T09:50:27.874Z,14.07
2018-11-03T09:51:27.817Z,14.17
2018-11-03T09:52:27.795Z,14.04
2018-11-03T09:53:27.779Z,13.79
2018-11-03T09:54:27.769Z,13.91
2018-11-03T09:55:27.741Z,14.20
2018-11-03T09:56:27.759Z,14.24
2018-11-03T09:57:27.738Z,14.31
2018-11-03T09:58:27.698Z,14.16
2018-11-03T09:59:27.675Z,14.46
2018-11-03T10:00:27.648Z,14.50
2018-11-03T10:01:27.632Z,14.52
2018-11-03T10:02:27.619Z,14.60
2018-11-03T10:03:27.597Z,14.68
2018-11-03T10:04:27.588Z,14.86
2018-11-03T10:05:27.568Z,15.01
2018-11-03T10:06:27.615Z,15.02
2018-11-03T10:07:27.530Z,14.84
2018-11-03T10:08:27.520Z,14.78
2018-11-03T10:09:27.504Z,14.42
2018-11-03T10:10:27.491Z,14.47
2018-11-03T10:11:27.465Z,14.29
2018-11-03T10:12:27.487Z,14.56
2018-11-03T10:13:27.432Z,14.64
2018-11-03T10:14:27.419Z,14.53
2018-11-03T10:15:27.400Z,14.42
2018-11-03T10:16:27.411Z,14.53
2018-11-03T10:17:27.371Z,14.75
2018-11-03T10:18:27.359Z,14.86
2018-11-03T10:19:27.339Z,14.72
2018-11-03T10:20:27.323Z,14.74
2018-11-03T10:21:27.304Z,14.86
2018-11-03T10:22:27.356Z,14.47
2018-11-03T10:23:27.269Z,14.57
2018-11-03T10:24:27.262Z,14.74
2018-11-03T10:25:27.243Z,14.80
2018-11-03T10:26:27.225Z,14.62
2018-11-03T10:27:27.222Z,14.67
2018-11-03T10:28:27.202Z,14.62
2018-11-03T10:29:27.177Z,14.62
2018-11-03T10:30:27.164Z,14.86
2018-11-03T10:31:27.170Z,14.71
2018-11-03T10:32:27.135Z,14.60
2018-11-03T10:33:27.201Z,14.83
2018-11-03T10:34:27.103Z,14.93
2018-11-03T10:35:27.139Z,15.27
2018-11-03T10:36:27.081Z,14.83
2018-11-03T10:37:27.062Z,14.62
2018-11-03T10:38:27.065Z,14.50
2018-11-03T10:39:27.035Z,14.56
2018-11-03T10:40:27.068Z,14.61
2018-11-03T10:41:27.009Z,14.62
2018-11-03T10:42:27.004Z,14.65
2018-11-03T10:43:27.083Z,14.50
2018-11-03T10:44:26.958Z,14.68
2018-11-03T10:45:26.968Z,14.68
2018-11-03T10:46:27.043Z,14.74
2018-11-03T10:47:26.920Z,15.11
2018-11-03T10:48:26.894Z,15.27
2018-11-03T10:49:26.875Z,15.33
2018-11-03T10:50:26.865Z,15.42
2018-11-03T10:51:26.859Z,15.33
2018-11-03T10:52:26.849Z,15.05
2018-11-03T10:53:26.856Z,15.12
2018-11-03T10:54:26.809Z,14.99
2018-11-03T10:55:26.796Z,15.31
2018-11-03T10:56:26.794Z,15.46
2018-11-03T10:57:26.774Z,15.39
2018-11-03T10:58:26.767Z,15.39
2018-11-03T10:59:26.741Z,15.45
2018-11-03T11:00:26.726Z,15.63
2018-11-03T11:01:26.716Z,15.66
2018-11-03T11:02:26.725Z,15.49
2018-11-03T11:03:26.738Z,15.36
2018-11-03T11:04:26.777Z,15.75
2018-11-03T11:05:26.671Z,15.88
2018-11-03T11:06:26.645Z,15.88
2018-11-03T11:07:26.681Z,15.51
2018-11-03T11:08:26.632Z,15.30
2018-11-03T11:09:26.635Z,15.11
2018-11-03T11:10:26.593Z,15.17
2018-11-03T11:11:26.600Z,14.72
2018-11-03T11:12:26.574Z,14.42
2018-11-03T11:13:26.552Z,14.42
2018-11-03T11:14:26.575Z,14.35
2018-11-03T11:15:26.530Z,14.49
2018-11-03T11:16:26.618Z,14.87
2018-11-03T11:17:26.516Z,14.90
2018-11-03T11:18:26.494Z,15.30
2018-11-03T11:19:26.488Z,15.59
2018-11-03T11:20:26.466Z,15.61
2018-11-03T11:21:26.452Z,15.61
2018-11-03T11:22:26.446Z,15.63
2018-11-03T11:23:26.497Z,15.42
2018-11-03T11:24:26.446Z,15.54
2018-11-03T11:25:26.506Z,15.30
2018-11-03T11:26:26.410Z,15.11
2018-11-03T11:27:26.381Z,15.20
2018-11-03T11:28:26.869Z,15.05
2018-11-03T11:29:26.365Z,15.09
2018-11-03T11:30:26.340Z,15.28
2018-11-03T11:31:26.449Z,15.35
2018-11-03T11:32:26.391Z,15.59
2018-11-03T11:33:26.301Z,15.72
2018-11-03T11:34:26.292Z,15.88
2018-11-03T11:35:26.276Z,16.09
2018-11-03T11:36:26.263Z,16.11
2018-11-03T11:37:26.289Z,16.07
2018-11-03T11:38:26.267Z,15.52
2018-11-03T11:39:26.234Z,15.49
2018-11-03T11:40:26.213Z,15.49
2018-11-03T11:41:26.200Z,15.48
2018-11-03T11:42:26.197Z,15.46
2018-11-03T11:43:26.191Z,15.46
2018-11-03T11:44:26.171Z,15.27
2018-11-03T11:45:26.161Z,15.45
2018-11-03T11:46:26.155Z,15.56
2018-11-03T11:47:26.132Z,15.84
2018-11-03T11:48:26.126Z,16.00
2018-11-03T11:49:26.119Z,15.82
2018-11-03T11:50:26.104Z,15.70
2018-11-03T11:51:26.088Z,15.39
2018-11-03T11:52:26.078Z,15.11
2018-11-03T11:53:26.065Z,15.24
2018-11-03T11:54:26.059Z,15.41
2018-11-03T11:55:26.056Z,15.43
2018-11-03T11:56:26.050Z,15.70
2018-11-03T11:57:26.024Z,15.88
2018-11-03T11:58:26.012Z,16.18
2018-11-03T11:59:26.010Z,16.30
2018-11-03T12:00:26.097Z,16.27
2018-11-03T12:01:25.979Z,16.42
2018-11-03T12:02:26.112Z,16.53
2018-11-03T12:03:25.950Z,16.59
2018-11-03T12:04:25.943Z,16.45
2018-11-03T12:05:25.930Z,16.27
2018-11-03T12:06:25.930Z,16.09
2018-11-03T12:07:25.908Z,16.04
2018-11-03T12:08:25.895Z,16.04
2018-11-03T12:09:25.892Z,16.04
2018-11-03T12:10:25.950Z,16.03
2018-11-03T12:11:25.873Z,16.26
2018-11-03T12:12:25.861Z,16.41
2018-11-03T12:13:25.847Z,16.20
2018-11-03T12:14:25.837Z,16.33
2018-11-03T12:15:25.837Z,16.26
2018-11-03T12:16:25.826Z,15.96
2018-11-03T12:17:25.808Z,15.88
2018-11-03T12:18:25.795Z,15.89
2018-11-03T12:19:25.782Z,15.96
2018-11-03T12:20:25.773Z,16.11
2018-11-03T12:21:25.772Z,16.41
2018-11-03T12:22:25.756Z,16.48
2018-11-03T12:23:25.747Z,16.68
2018-11-03T12:24:25.731Z,16.65
2018-11-03T12:25:25.761Z,16.60
2018-11-03T12:26:25.731Z,16.44
2018-11-03T12:27:25.705Z,16.40
2018-11-03T12:28:25.705Z,16.16
2018-11-03T12:29:25.683Z,15.86
2018-11-03T12:30:25.676Z,15.92
2018-11-03T12:31:26.399Z,15.82
2018-11-03T12:32:25.654Z,16.04
2018-11-03T12:33:25.638Z,16.03
2018-11-03T12:34:25.633Z,16.16
2018-11-03T12:35:25.619Z,16.33
2018-11-03T12:36:25.610Z,16.38
2018-11-03T12:37:25.600Z,16.48
2018-11-03T12:38:25.592Z,16.59
2018-11-03T12:39:25.575Z,16.31
2018-11-03T12:40:25.567Z,16.40
2018-11-03T12:41:25.677Z,16.49
2018-11-03T12:42:25.546Z,16.45
2018-11-03T12:43:25.527Z,16.42
2018-11-03T12:44:25.521Z,16.18
2018-11-03T12:45:25.517Z,15.76
2018-11-03T12:46:25.515Z,15.59
2018-11-03T12:47:25.495Z,15.45
2018-11-03T12:48:25.585Z,15.54
2018-11-03T12:49:25.470Z,15.57
2018-11-03T12:50:25.460Z,15.64
2018-11-03T12:51:25.451Z,16.11
2018-11-03T12:52:25.438Z,16.37
2018-11-03T12:53:25.432Z,16.77
2018-11-03T12:54:25.409Z,16.85
2018-11-03T12:55:25.495Z,16.88
2018-11-03T12:56:25.386Z,17.07
2018-11-03T12:57:25.370Z,17.15
2018-11-03T12:58:25.361Z,17.43
2018-11-03T12:59:25.405Z,17.40
2018-11-03T13:00:25.339Z,16.98
2018-11-03T13:01:25.378Z,16.86
2018-11-03T13:02:25.316Z,16.83
2018-11-03T13:03:25.312Z,16.62
2018-11-03T13:04:25.301Z,16.26
2018-11-03T13:05:25.281Z,16.16
2018-11-03T13:06:25.281Z,15.92
2018-11-03T13:07:25.267Z,15.76
2018-11-03T13:08:25.246Z,15.72
2018-11-03T13:09:25.374Z,15.67